ADDS TAF Data INFO
IDs: Format: Raw Decoded Include METARs

Data at: 1928 UTC 23 Jun 2018

TAF for:KAUS (Austin/Bergstrom Int, TX, US) issued at 1724 UTC 23 Jun 2018
Text:KAUS 231724Z 2318/2424 19015G25KT P6SM FEW050
Forecast period:1800 UTC 23 June 2018 to 0700 UTC 24 June 2018
Forecast type:FROM: standard forecast or significant change
Winds:from the S (190 degrees) at 17 MPH (15 knots; 7.7 m/s) gusting to 29 MPH (25 knots; 12.9 m/s)
Visibility:6 or more sm (10+ km)
Ceiling:at least 12,000 feet AGL
Clouds: few clouds at 5000 feet AGL
Text:FM240700 17012KT P6SM BKN015
Forecast period:0700 to 1500 UTC 24 June 2018
Forecast type:FROM: standard forecast or significant change
Winds:from the S (170 degrees) at 14 MPH (12 knots; 6.2 m/s)
Visibility:6 or more sm (10+ km)
Ceiling:1500 feet AGL
Clouds: broken clouds at 1500 feet AGL
Text:FM241500 18013G23KT P6SM FEW030
Forecast period:1500 UTC 24 June 2018 to 0000 UTC 25 June 2018
Forecast type:FROM: standard forecast or significant change
Winds:from the S (180 degrees) at 15 MPH (13 knots; 6.7 m/s) gusting to 26 MPH (23 knots; 11.8 m/s)
Visibility:6 or more sm (10+ km)
Ceiling:at least 12,000 feet AGL
Clouds: few clouds at 3000 feet AGL